Time;durP1;ratioP1;P1;durP2;ratioP2;P2;SDS_P1;SDS_P2;PMS_P1;PMS_P2;Temp;Humidity;BMP_temperature;BMP_pressure;BME280_temperature;BME280_humidity;BME280_pressure;Samples;Min_cycle;Max_cycle;Signal;HPM_P1;HPM_P2
2022/04/08 00:01:22;;;;;;;12.68;3.03;;;;;;;14.04;35.78;99972.66;5031969;28;20392;-74
2022/04/08 00:03:47;;;;;;;7.82;2.78;;;;;;;14.00;35.87;99966.31;5031764;28;20037;-74
2022/04/08 00:06:13;;;;;;;8.20;2.75;;;;;;;13.97;35.94;99970.53;5031766;28;20102;-74
2022/04/08 00:08:39;;;;;;;8.43;2.63;;;;;;;13.93;35.82;99971.63;5030522;28;20029;-74
2022/04/08 00:11:04;;;;;;;7.35;2.53;;;;;;;13.89;35.94;99975.03;5033784;28;20033;-74
2022/04/08 00:13:30;;;;;;;8.13;3.35;;;;;;;13.85;35.75;99985.16;5035291;28;20163;-77
2022/04/08 00:15:56;;;;;;;8.07;2.30;;;;;;;13.86;35.93;99978.50;5035129;28;20034;-74
2022/04/08 00:18:21;;;;;;;9.77;2.90;;;;;;;13.85;35.77;99979.66;5035327;28;20029;-74
2022/04/08 00:20:47;;;;;;;15.00;2.92;;;;;;;13.81;35.74;99988.94;5034076;28;20136;-74
2022/04/08 00:23:13;;;;;;;5.30;2.50;;;;;;;13.79;35.80;99966.56;5033852;28;20467;-74
2022/04/08 00:25:39;;;;;;;6.40;2.55;;;;;;;13.73;36.02;99973.44;5033924;28;20060;-75
2022/04/08 00:28:05;;;;;;;9.60;2.67;;;;;;;13.74;35.88;99962.09;5035209;28;20033;-75
2022/04/08 00:30:31;;;;;;;8.55;2.55;;;;;;;13.72;35.94;99974.59;5035198;28;20113;-74
2022/04/08 00:32:57;;;;;;;8.98;2.05;;;;;;;13.68;36.05;99970.94;5035071;28;20029;-74
2022/04/08 00:35:23;;;;;;;9.77;2.83;;;;;;;13.71;35.89;99976.56;5034772;28;20025;-75
2022/04/08 00:37:50;;;;;;;5.60;2.35;;;;;;;13.70;35.91;99974.97;5034992;28;20103;-74
2022/04/08 00:40:16;;;;;;;9.93;3.00;;;;;;;13.71;36.16;99973.00;5034733;28;20495;-74
2022/04/08 00:42:43;;;;;;;8.23;2.80;;;;;;;13.67;35.97;99963.88;5033384;28;20052;-77
2022/04/08 00:45:09;;;;;;;7.38;2.22;;;;;;;13.62;36.08;99962.19;5034923;28;20456;-74
2022/04/08 00:47:37;;;;;;;9.55;2.80;;;;;;;13.52;36.12;99959.94;5034815;28;20384;-75
2022/04/08 00:50:06;;;;;;;5.70;2.10;;;;;;;13.45;36.13;99963.31;5034825;28;20403;-74
2022/04/08 00:52:33;;;;;;;7.35;2.35;;;;;;;13.45;35.87;99948.78;5034710;28;20084;-74
2022/04/08 00:55:03;;;;;;;7.38;3.20;;;;;;;13.36;36.09;99943.44;5034429;28;20041;-74
2022/04/08 00:57:29;;;;;;;11.80;2.63;;;;;;;13.36;36.03;99953.63;5034701;28;20029;-75
2022/04/08 00:59:55;;;;;;;6.25;2.22;;;;;;;13.36;35.97;99961.88;5033107;28;20526;-75
2022/04/08 01:02:21;;;;;;;6.20;2.50;;;;;;;13.35;35.83;99969.31;5034563;28;20021;-74
2022/04/08 01:04:47;;;;;;;5.82;1.80;;;;;;;13.37;36.06;99971.69;5033272;28;20025;-74
2022/04/08 01:07:14;;;;;;;8.77;1.95;;;;;;;13.38;35.96;99984.28;5034483;28;20025;-74
2022/04/08 01:09:40;;;;;;;8.38;2.25;;;;;;;13.35;36.19;99984.97;5034228;28;20022;-74
2022/04/08 01:12:06;;;;;;;9.43;2.40;;;;;;;13.37;35.87;99974.44;5034281;28;20025;-75
2022/04/08 01:14:31;;;;;;;6.88;1.85;;;;;;;13.27;36.40;99984.75;5032803;28;20154;-74
2022/04/08 01:16:57;;;;;;;5.05;1.83;;;;;;;13.28;36.26;99980.88;5034165;28;20029;-74
2022/04/08 01:19:24;;;;;;;10.40;2.60;;;;;;;13.18;36.31;99972.31;5034151;28;20034;-74
2022/04/08 01:21:50;;;;;;;6.35;2.17;;;;;;;13.11;36.73;99966.63;5032076;28;20119;-74
2022/04/08 01:24:16;;;;;;;9.68;2.25;;;;;;;13.13;36.61;99967.06;5034248;28;20033;-75
2022/04/08 01:26:42;;;;;;;6.35;2.60;;;;;;;13.10;36.58;99971.31;5032823;28;20080;-77
2022/04/08 01:29:08;;;;;;;9.35;2.10;;;;;;;13.08;36.45;99975.56;5032783;28;20445;-75
2022/04/08 01:31:33;;;;;;;4.45;2.30;;;;;;;13.10;36.53;99976.00;5032728;28;20025;-74
2022/04/08 01:33:59;;;;;;;9.30;2.85;;;;;;;13.12;36.48;99969.03;5034055;28;20037;-74
2022/04/08 01:36:25;;;;;;;10.52;2.58;;;;;;;13.06;36.69;99979.44;5033955;28;20032;-74
2022/04/08 01:38:51;;;;;;;9.05;2.72;;;;;;;13.12;36.54;99987.44;5033836;28;20554;-78
2022/04/08 01:41:16;;;;;;;5.60;2.10;;;;;;;13.04;36.77;99989.97;5033519;28;20052;-74
2022/04/08 01:43:45;;;;;;;7.95;2.50;;;;;;;13.09;36.69;99988.94;5033574;28;20029;-74
2022/04/08 01:46:11;;;;;;;6.00;2.55;;;;;;;13.08;36.56;99987.34;5033753;28;20028;-74
2022/04/08 01:48:36;;;;;;;9.18;2.85;;;;;;;13.07;36.51;99988.44;5032442;28;20473;-74
2022/04/08 01:51:02;;;;;;;5.95;2.63;;;;;;;12.99;36.63;99981.16;5032032;28;20025;-75
2022/04/08 01:53:28;;;;;;;9.60;2.47;;;;;;;12.99;36.82;99975.69;5033666;28;20061;-74
2022/04/08 01:55:53;;;;;;;8.20;2.53;;;;;;;12.96;36.70;99970.91;5033565;28;20029;-74
2022/04/08 01:58:19;;;;;;;6.72;1.92;;;;;;;12.96;36.75;99979.94;5033487;28;20025;-74
2022/04/08 02:00:44;;;;;;;4.18;2.00;;;;;;;12.94;36.71;99981.44;5033403;28;20026;-74
2022/04/08 02:03:10;;;;;;;7.00;2.10;;;;;;;12.96;36.74;99976.38;5033460;28;20104;-74
2022/04/08 02:05:35;;;;;;;5.10;2.45;;;;;;;12.94;36.79;99978.69;5033409;28;20040;-74
2022/04/08 02:08:01;;;;;;;7.35;2.17;;;;;;;12.94;36.68;99984.97;5033392;28;20026;-74
2022/04/08 02:10:27;;;;;;;6.22;2.28;;;;;;;12.94;36.75;99979.50;5033285;28;20028;-74
2022/04/08 02:12:53;;;;;;;6.00;2.70;;;;;;;12.94;36.94;99978.69;5033252;28;20021;-74
2022/04/08 02:15:30;;;;;;;7.40;2.75;;;;;;;12.91;36.88;99977.41;5032837;28;20026;-74
2022/04/08 02:17:56;;;;;;;7.22;2.25;;;;;;;12.86;36.81;99982.38;5033234;28;20056;-74
2022/04/08 02:20:22;;;;;;;10.20;2.42;;;;;;;12.83;36.78;99974.81;5032960;28;20480;-74
2022/04/08 02:22:48;;;;;;;13.50;3.10;;;;;;;12.74;37.08;99961.25;5033024;28;20075;-75
2022/04/08 02:25:13;;;;;;;5.75;2.22;;;;;;;12.72;36.97;99964.34;5033099;28;20033;-73
2022/04/08 02:27:39;;;;;;;7.53;1.92;;;;;;;12.68;37.04;99963.41;5033000;28;20064;-74
2022/04/08 02:30:05;;;;;;;6.00;2.33;;;;;;;12.65;37.01;99958.66;5031634;28;20037;-73
2022/04/08 02:32:30;;;;;;;4.75;1.88;;;;;;;12.65;36.94;99957.84;5030172;28;20037;-73
2022/04/08 02:34:56;;;;;;;9.25;2.63;;;;;;;12.65;36.93;99957.84;5031499;28;20037;-74
2022/04/08 02:37:22;;;;;;;3.97;1.95;;;;;;;12.56;36.97;99955.25;5032839;28;20031;-74
2022/04/08 02:39:47;;;;;;;5.50;2.88;;;;;;;12.61;37.00;99951.44;5031448;28;20045;-74
2022/04/08 02:42:13;;;;;;;9.63;2.60;;;;;;;12.52;37.21;99953.53;5032596;28;20076;-75
2022/04/08 02:44:38;;;;;;;6.20;2.13;;;;;;;12.56;37.17;99948.97;5032207;28;20357;-76
2022/04/08 02:47:04;;;;;;;10.77;2.25;;;;;;;12.58;37.03;99944.72;5032647;28;20543;-74
2022/04/08 02:49:30;;;;;;;7.43;2.65;;;;;;;12.54;36.97;99946.53;5032436;28;20121;-73
2022/04/08 02:51:55;;;;;;;5.35;2.22;;;;;;;12.54;36.99;99943.00;5032612;28;20030;-74
2022/04/08 02:54:21;;;;;;;15.20;3.70;;;;;;;12.51;37.09;99939.03;5032576;28;20037;-74
2022/04/08 02:56:46;;;;;;;4.03;2.17;;;;;;;12.51;37.05;99941.78;5032510;28;20460;-74
2022/04/08 02:59:12;;;;;;;9.15;2.42;;;;;;;12.59;36.90;99942.78;5032384;28;20041;-75
2022/04/08 03:01:38;;;;;;;8.55;2.80;;;;;;;12.55;36.81;99952.84;5032446;28;20112;-73
2022/04/08 03:04:06;;;;;;;7.35;1.70;;;;;;;12.54;37.05;99951.22;5031230;28;20395;-73
2022/04/08 03:06:32;;;;;;;4.07;2.20;;;;;;;12.56;37.12;99955.25;5032463;28;20022;-74
2022/04/08 03:08:58;;;;;;;7.20;2.03;;;;;;;12.54;37.19;99948.50;5032415;28;20163;-74
2022/04/08 03:11:23;;;;;;;6.82;2.45;;;;;;;12.55;37.16;99961.88;5032398;28;20546;-73
2022/04/08 03:13:49;;;;;;;7.38;2.45;;;;;;;12.49;37.09;99958.56;5032339;28;20025;-75
2022/04/08 03:16:14;;;;;;;8.07;2.25;;;;;;;12.48;37.18;99967.13;5032381;28;20021;-74
2022/04/08 03:18:40;;;;;;;8.23;3.00;;;;;;;12.49;36.94;99955.03;5032194;28;20032;-73
2022/04/08 03:21:06;;;;;;;6.95;1.92;;;;;;;12.50;37.57;99956.63;5032363;28;20037;-73
2022/04/08 03:23:32;;;;;;;7.38;2.35;;;;;;;12.47;37.21;99963.59;5030826;28;20478;-74
2022/04/08 03:25:57;;;;;;;12.10;2.95;;;;;;;12.43;37.25;99948.97;5032204;28;20107;-74
2022/04/08 03:28:23;;;;;;;7.60;2.38;;;;;;;12.43;37.08;99959.13;5032270;28;20037;-75
2022/04/08 03:30:48;;;;;;;9.85;2.35;;;;;;;12.45;37.18;99959.56;5032485;28;20048;-74
2022/04/08 03:33:14;;;;;;;11.57;5.32;;;;;;;12.43;37.20;99957.19;5032093;28;20511;-74
2022/04/08 03:35:40;;;;;;;5.25;2.00;;;;;;;12.42;37.26;99955.59;5031946;28;20025;-73
2022/04/08 03:38:05;;;;;;;11.73;3.13;;;;;;;12.42;37.18;99949.31;5032077;28;20476;-74
2022/04/08 03:40:33;;;;;;;8.80;2.40;;;;;;;12.39;37.22;99952.72;5032222;28;20033;-75
2022/04/08 03:42:58;;;;;;;6.28;2.03;;;;;;;12.35;37.31;99963.59;5032042;28;20404;-74
2022/04/08 03:45:24;;;;;;;5.55;2.22;;;;;;;12.33;37.26;99965.09;5033303;28;20112;-74
2022/04/08 03:47:50;;;;;;;9.00;2.40;;;;;;;12.25;37.63;99960.53;5035813;28;20030;-74
2022/04/08 03:50:16;;;;;;;7.13;2.33;;;;;;;12.25;37.44;99952.31;5035951;28;20061;-74
2022/04/08 03:52:42;;;;;;;6.13;2.20;;;;;;;12.20;37.39;99948.66;5035712;28;20482;-75
2022/04/08 03:55:08;;;;;;;8.65;2.33;;;;;;;12.18;37.42;99945.47;5035888;28;20082;-74
2022/04/08 03:57:34;;;;;;;7.25;2.50;;;;;;;12.16;37.50;99942.25;5035615;28;20396;-74
2022/04/08 04:00:00;;;;;;;8.85;2.30;;;;;;;12.17;37.63;99938.38;5035648;28;20037;-74
2022/04/08 04:02:25;;;;;;;10.20;2.75;;;;;;;12.05;38.00;99940.31;5035695;28;20037;-74
2022/04/08 04:04:51;;;;;;;8.38;3.67;;;;;;;12.02;38.05;99947.28;5035424;28;20040;-74
2022/04/08 04:07:17;;;;;;;12.20;2.50;;;;;;;12.07;37.87;99943.50;5035620;28;20480;-73
2022/04/08 04:09:44;;;;;;;7.28;2.15;;;;;;;12.05;37.69;99945.78;5035594;28;20025;-77
2022/04/08 04:12:10;;;;;;;5.93;1.90;;;;;;;12.05;37.74;99943.84;5035281;28;20037;-73
2022/04/08 04:14:36;;;;;;;16.88;2.95;;;;;;;11.96;37.94;99937.69;5035541;28;20110;-73
2022/04/08 04:17:02;;;;;;;9.55;2.45;;;;;;;11.94;37.95;99935.31;5035422;28;20033;-73
2022/04/08 04:19:28;;;;;;;6.75;2.10;;;;;;;11.89;38.09;99931.97;5035256;28;20033;-74
2022/04/08 04:21:54;;;;;;;10.45;2.72;;;;;;;11.91;37.94;99926.97;5035377;28;20037;-73
2022/04/08 04:24:19;;;;;;;8.27;1.95;;;;;;;11.87;37.92;99924.13;5035287;28;20053;-73
2022/04/08 04:26:45;;;;;;;13.48;3.72;;;;;;;11.76;38.13;99931.13;5035232;28;20099;-74
2022/04/08 04:29:11;;;;;;;15.20;5.10;;;;;;;11.72;38.08;99929.44;5035224;28;20475;-73
2022/04/08 04:31:36;;;;;;;10.65;3.83;;;;;;;11.76;38.06;99930.34;5034935;28;20025;-74
2022/04/08 04:34:02;;;;;;;11.63;2.90;;;;;;;11.78;38.17;99937.06;5035114;28;20024;-73
2022/04/08 04:36:28;;;;;;;8.07;2.38;;;;;;;11.86;37.92;99929.91;5035095;28;20104;-73
2022/04/08 04:38:53;;;;;;;13.10;3.38;;;;;;;11.82;38.03;99938.03;5035006;28;20025;-73
2022/04/08 04:41:20;;;;;;;7.78;3.00;;;;;;;11.76;38.24;99933.06;5034816;28;20159;-74
2022/04/08 04:43:45;;;;;;;15.73;3.97;;;;;;;11.83;38.12;99936.06;5034998;28;20415;-78
2022/04/08 04:46:11;;;;;;;7.20;2.67;;;;;;;11.82;38.18;99937.22;5034906;28;20026;-73
2022/04/08 04:48:36;;;;;;;16.15;3.28;;;;;;;11.70;38.32;99942.63;5034851;28;20076;-74
2022/04/08 04:51:02;;;;;;;14.07;3.58;;;;;;;11.57;38.63;99947.31;5034522;28;20025;-74
2022/04/08 04:53:27;;;;;;;10.55;2.63;;;;;;;11.65;38.35;99949.94;5034778;28;20025;-73
2022/04/08 04:55:54;;;;;;;10.10;2.92;;;;;;;11.68;38.38;99945.72;5034497;28;20063;-74
2022/04/08 04:58:20;;;;;;;14.25;3.40;;;;;;;11.60;38.57;99941.94;5033562;28;20032;-78
2022/04/08 05:00:46;;;;;;;12.52;3.05;;;;;;;11.62;38.45;99947.88;5034645;28;20040;-73
2022/04/08 05:03:13;;;;;;;9.85;3.15;;;;;;;11.59;38.44;99943.09;5034556;28;20105;-74
2022/04/08 05:05:40;;;;;;;13.40;2.85;;;;;;;11.60;38.72;99947.41;5034514;28;20025;-74
2022/04/08 05:08:07;;;;;;;7.90;2.28;;;;;;;11.61;38.19;99949.00;5033273;28;20395;-79
2022/04/08 05:10:33;;;;;;;11.48;2.92;;;;;;;11.61;38.24;99962.69;5034454;28;20021;-74
2022/04/08 05:13:01;;;;;;;14.50;3.00;;;;;;;11.54;38.65;99965.19;5033053;28;20164;-76
2022/04/08 05:15:28;;;;;;;17.90;5.75;;;;;;;11.61;38.44;99965.44;5034462;28;20526;-73
2022/04/08 05:17:55;;;;;;;14.10;3.67;;;;;;;11.56;38.53;99968.41;5034315;28;20079;-72
2022/04/08 05:20:21;;;;;;;13.43;3.33;;;;;;;11.58;38.61;99965.31;5030748;28;20082;-73
2022/04/08 05:22:46;;;;;;;10.60;2.85;;;;;;;11.57;38.44;99960.97;5031858;28;20033;-73
2022/04/08 05:25:12;;;;;;;7.22;2.80;;;;;;;11.56;38.49;99962.09;5014341;28;20033;-74
2022/04/08 05:27:41;;;;;;;10.80;3.22;;;;;;;11.39;38.89;99958.41;5013147;28;20034;-74
2022/04/08 05:30:17;;;;;;;10.63;3.28;;;;;;;11.43;38.91;99949.53;5014298;28;20169;-73
2022/04/08 05:32:48;;;;;;;12.45;3.65;;;;;;;11.41;38.65;99958.09;5014347;28;20025;-73
2022/04/08 05:35:15;;;;;;;8.23;2.80;;;;;;;11.50;38.47;99949.78;5012997;28;20454;-73
2022/04/08 05:37:43;;;;;;;10.80;2.95;;;;;;;11.32;39.08;99960.88;5014170;28;20030;-73
2022/04/08 05:40:16;;;;;;;15.98;3.50;;;;;;;11.41;39.10;99958.09;5014251;28;20061;-74
2022/04/08 05:42:46;;;;;;;10.10;3.17;;;;;;;11.51;38.88;99957.66;5029099;28;20208;-73
2022/04/08 05:45:16;;;;;;;15.85;3.85;;;;;;;11.45;39.13;99963.69;5033633;28;20044;-74
2022/04/08 05:47:42;;;;;;;13.65;4.22;;;;;;;11.61;38.84;99970.09;5015415;28;20037;-74
2022/04/08 05:50:09;;;;;;;11.50;3.45;;;;;;;11.53;39.01;99966.31;5032033;28;20037;-73
2022/04/08 05:52:35;;;;;;;16.63;3.53;;;;;;;11.56;39.00;99976.59;5032587;28;20112;-74
2022/04/08 05:55:00;;;;;;;13.65;2.88;;;;;;;11.55;39.15;99976.91;5033594;28;20535;-71
2022/04/08 05:57:26;;;;;;;10.18;3.50;;;;;;;11.63;39.00;99989.72;5015581;28;20250;-72
2022/04/08 05:59:58;;;;;;;11.88;3.42;;;;;;;11.61;39.01;99987.31;5023908;28;20018;-71
2022/04/08 06:02:24;;;;;;;14.90;3.75;;;;;;;11.65;39.06;99985.50;5015771;28;20029;-71
2022/04/08 06:04:49;;;;;;;13.52;3.70;;;;;;;11.58;39.27;99992.69;5015725;28;20167;-71
2022/04/08 06:07:15;;;;;;;20.88;5.28;;;;;;;11.58;39.09;99989.94;5033250;28;20029;-71
2022/04/08 06:09:41;;;;;;;11.63;3.88;;;;;;;11.61;39.18;99992.78;5032791;28;20447;-71
2022/04/08 06:12:07;;;;;;;9.57;3.47;;;;;;;11.62;39.39;99988.91;5033168;28;20091;-74
2022/04/08 06:14:32;;;;;;;14.27;3.75;;;;;;;11.73;39.08;99996.72;5033303;28;20622;-75
2022/04/08 06:16:58;;;;;;;17.63;3.70;;;;;;;11.90;39.10;99999.28;5033403;28;20164;-75
2022/04/08 06:19:27;;;;;;;14.43;4.57;;;;;;;11.84;39.35;99989.69;5015091;28;20028;-74
2022/04/08 06:21:54;;;;;;;11.10;3.58;;;;;;;11.90;39.15;99991.88;5032623;28;20033;-76
2022/04/08 06:24:20;;;;;;;13.43;3.58;;;;;;;12.01;39.41;99996.88;5015333;28;20026;-74
2022/04/08 06:26:45;;;;;;;19.52;3.83;;;;;;;12.07;39.28;99982.63;5015197;28;20032;-74
2022/04/08 06:29:11;;;;;;;19.05;4.47;;;;;;;12.17;39.14;99990.41;5032949;28;20025;-74
2022/04/08 06:31:36;;;;;;;16.90;3.38;;;;;;;12.25;39.32;99985.97;5032670;28;20104;-73
2022/04/08 06:34:02;;;;;;;14.00;3.47;;;;;;;12.35;39.08;99990.97;5032848;28;20048;-74
2022/04/08 06:36:29;;;;;;;16.90;5.95;;;;;;;12.44;39.28;99996.34;5014111;28;20029;-71
2022/04/08 06:38:55;;;;;;;9.68;3.67;;;;;;;12.43;39.26;99994.75;5031971;28;20064;-74
2022/04/08 06:41:21;;;;;;;24.38;4.95;;;;;;;12.51;39.45;99996.56;5032537;28;20041;-72
2022/04/08 06:43:46;;;;;;;15.32;4.03;;;;;;;12.73;39.20;99992.56;5032736;28;20476;-73
2022/04/08 06:46:12;;;;;;;19.75;3.97;;;;;;;12.76;39.45;99995.38;5032479;28;20036;-73
2022/04/08 06:48:38;;;;;;;18.67;4.25;;;;;;;12.70;39.79;99999.53;5026722;28;20041;-73
2022/04/08 06:51:04;;;;;;;14.40;4.28;;;;;;;13.03;39.16;99995.78;5032234;28;20029;-72
2022/04/08 06:53:30;;;;;;;16.40;3.45;;;;;;;13.04;39.53;99994.66;5032458;28;20025;-74
2022/04/08 06:55:56;;;;;;;17.25;3.90;;;;;;;13.21;39.65;100001.81;5030841;28;20399;-73
2022/04/08 06:58:26;;;;;;;60.33;10.90;;;;;;;13.24;39.72;99996.44;5032414;28;20105;-73
2022/04/08 07:00:52;;;;;;;19.95;6.47;;;;;;;13.41;39.47;99997.28;5032494;28;20108;-73
2022/04/08 07:03:18;;;;;;;30.15;6.53;;;;;;;13.52;39.43;99998.38;5031140;28;20459;-73
2022/04/08 07:05:44;;;;;;;39.53;7.10;;;;;;;13.46;39.75;100008.81;5032303;28;20041;-77
2022/04/08 07:08:10;;;;;;;20.95;5.60;;;;;;;13.58;39.79;100000.50;5032449;28;20030;-74
2022/04/08 07:10:38;;;;;;;56.80;11.45;;;;;;;13.91;39.25;100001.38;5032371;28;20483;-74
2022/04/08 07:13:04;;;;;;;11.75;3.88;;;;;;;13.98;39.29;99996.03;5032459;28;20033;-74
2022/04/08 07:15:30;;;;;;;20.38;5.20;;;;;;;14.04;39.41;100000.13;5032537;28;20029;-82
2022/04/08 07:17:56;;;;;;;19.88;5.13;;;;;;;14.12;39.26;100007.41;5031181;28;20025;-82
2022/04/08 07:20:22;;;;;;;22.80;4.95;;;;;;;14.19;39.21;100012.28;5029519;28;20029;-81
2022/04/08 07:22:48;;;;;;;25.73;6.07;;;;;;;14.19;39.57;100006.78;5036311;28;20029;-84
2022/04/08 07:25:15;;;;;;;47.15;10.68;;;;;;;14.03;39.65;100012.28;5034174;28;20032;-82
2022/04/08 07:27:45;;;;;;;13.60;2.95;;;;;;;14.11;39.03;100016.78;5016754;28;20048;-82
2022/04/08 07:30:12;;;;;;;33.35;7.28;;;;;;;13.92;39.29;100025.75;5015339;28;20022;-71
2022/04/08 07:32:37;;;;;;;19.63;4.95;;;;;;;13.91;39.40;100026.09;5015742;28;20109;-71
2022/04/08 07:35:05;;;;;;;11.70;3.88;;;;;;;13.80;39.61;100028.53;5016368;28;20160;-71
2022/04/08 07:37:31;;;;;;;17.85;4.63;;;;;;;13.97;39.37;100027.41;5014901;28;20040;-71
2022/04/08 07:39:58;;;;;;;11.88;2.50;;;;;;;14.01;39.24;100028.31;5014380;28;20030;-72
2022/04/08 07:42:25;;;;;;;21.00;5.07;;;;;;;14.14;39.07;100029.84;5014243;28;20042;-71
2022/04/08 07:44:50;;;;;;;99.18;17.80;;;;;;;13.68;39.93;100023.94;5014371;28;20025;-71
2022/04/08 07:47:18;;;;;;;13.35;3.35;;;;;;;13.96;39.13;100023.88;5014279;28;20516;-70
2022/04/08 07:49:44;;;;;;;11.93;3.75;;;;;;;13.94;39.40;100036.38;5015070;28;20490;-72
2022/04/08 07:52:09;;;;;;;10.57;2.33;;;;;;;14.19;39.04;100045.25;5014825;28;20028;-71
2022/04/08 07:54:35;;;;;;;35.17;6.75;;;;;;;14.02;39.04;100036.19;5015978;28;20105;-71
2022/04/08 07:57:00;;;;;;;54.88;11.35;;;;;;;13.93;39.56;100041.06;5033495;28;20021;-71
2022/04/08 07:59:26;;;;;;;9.73;2.83;;;;;;;14.26;39.06;100037.97;5035537;28;20030;-71
2022/04/08 08:01:52;;;;;;;140.82;21.20;;;;;;;14.40;38.74;100046.59;5035639;28;20581;-71
2022/04/08 08:04:17;;;;;;;10.45;2.80;;;;;;;14.47;38.71;100053.44;5035593;28;20357;-71
2022/04/08 08:06:43;;;;;;;31.75;5.57;;;;;;;14.27;38.87;100061.56;5035526;28;20365;-71
2022/04/08 08:09:09;;;;;;;20.98;4.13;;;;;;;14.38;38.43;100056.34;5034400;28;20101;-72
2022/04/08 08:11:34;;;;;;;16.83;3.40;;;;;;;14.78;38.00;100060.84;5035398;28;20120;-70
2022/04/08 08:14:00;;;;;;;6.93;2.67;;;;;;;14.36;38.94;100069.66;5034196;28;20054;-71
2022/04/08 08:16:25;;;;;;;11.35;3.20;;;;;;;14.83;37.77;100064.13;5034249;28;20060;-75
2022/04/08 08:18:56;;;;;;;16.13;2.75;;;;;;;14.93;37.79;100066.31;5035032;28;20370;-78
2022/04/08 08:21:22;;;;;;;10.40;3.13;;;;;;;14.82;37.98;100068.03;5034586;28;20108;-72
2022/04/08 08:23:48;;;;;;;97.38;17.63;;;;;;;14.97;37.87;100077.44;5035274;28;20026;-80
2022/04/08 08:26:14;;;;;;;8.75;3.85;;;;;;;14.65;38.37;100074.69;5034000;28;20036;-78
2022/04/08 08:28:39;;;;;;;94.68;17.60;;;;;;;14.40;38.49;100079.56;5035570;28;20029;-71
2022/04/08 08:31:07;;;;;;;13.43;3.25;;;;;;;14.64;38.23;100078.59;5035133;28;20071;-76
2022/04/08 08:33:32;;;;;;;18.77;4.10;;;;;;;15.32;37.06;100084.84;5035072;28;20037;-70
2022/04/08 08:35:58;;;;;;;14.02;3.42;;;;;;;14.50;38.23;100078.25;5033839;28;20030;-70
2022/04/08 08:38:24;;;;;;;9.40;2.92;;;;;;;15.01;37.50;100083.00;5034898;28;20026;-70
2022/04/08 08:40:50;;;;;;;12.85;3.13;;;;;;;14.81;37.28;100085.72;5033704;28;20068;-70
2022/04/08 08:43:18;;;;;;;11.00;2.33;;;;;;;14.67;37.34;100099.91;5034699;28;20049;-70
2022/04/08 08:45:47;;;;;;;14.05;2.78;;;;;;;14.65;37.28;100109.66;5034824;28;20033;-70
2022/04/08 08:48:15;;;;;;;8.80;3.00;;;;;;;14.75;37.23;100111.88;5034752;28;20033;-70
2022/04/08 08:50:46;;;;;;;12.90;2.70;;;;;;;15.19;36.99;100106.22;5035111;28;20112;-70
2022/04/08 08:53:16;;;;;;;13.45;3.03;;;;;;;14.86;38.05;100109.38;5034746;28;20108;-70
2022/04/08 08:55:42;;;;;;;11.35;3.47;;;;;;;14.98;37.77;100106.53;5033184;28;20022;-70
2022/04/08 08:58:08;;;;;;;9.27;2.67;;;;;;;15.62;36.62;100115.41;5034717;28;20113;-70
2022/04/08 09:00:35;;;;;;;9.25;2.45;;;;;;;15.30;37.31;100121.00;5034611;28;20068;-71
2022/04/08 09:03:04;;;;;;;5.65;2.50;;;;;;;15.25;37.64;100118.53;5034700;28;20022;-71
2022/04/08 09:05:30;;;;;;;7.70;2.50;;;;;;;15.61;37.29;100122.06;5034606;28;20187;-71
2022/04/08 09:07:59;;;;;;;12.05;3.45;;;;;;;15.41;37.07;100124.78;5026974;28;20669;-72
2022/04/08 09:10:26;;;;;;;9.35;2.17;;;;;;;15.52;37.23;100125.03;5018304;28;20026;-73
2022/04/08 09:12:56;;;;;;;8.00;2.88;;;;;;;15.41;37.47;100135.78;5017955;28;20021;-78
2022/04/08 09:15:22;;;;;;;12.88;2.75;;;;;;;15.85;36.74;100127.28;5018907;28;20475;-73
2022/04/08 09:17:48;;;;;;;10.25;2.78;;;;;;;16.14;36.16;100136.91;5019200;28;20025;-71
2022/04/08 09:20:14;;;;;;;9.80;2.80;;;;;;;15.80;37.26;100133.13;5018059;28;20029;-73
2022/04/08 09:22:39;;;;;;;8.02;2.42;;;;;;;15.84;37.01;100133.97;5018811;28;20029;-72
2022/04/08 09:25:10;;;;;;;15.07;3.10;;;;;;;15.88;36.81;100137.59;5018098;28;20018;-77
2022/04/08 09:27:40;;;;;;;9.93;1.90;;;;;;;16.29;35.74;100130.50;5018431;28;20013;-72
2022/04/08 09:30:08;;;;;;;5.07;2.13;;;;;;;15.88;36.59;100134.84;5018085;28;20014;-72
2022/04/08 09:32:35;;;;;;;7.15;2.33;;;;;;;15.67;36.74;100142.66;5004848;28;20093;-73
2022/04/08 09:35:01;;;;;;;13.82;2.88;;;;;;;16.45;35.38;100143.38;5017768;28;20025;-72
2022/04/08 09:37:28;;;;;;;6.50;1.73;;;;;;;16.31;34.81;100143.91;5018078;28;20035;-73
2022/04/08 09:39:55;;;;;;;10.55;2.95;;;;;;;16.56;34.54;100152.66;5014818;28;20032;-72
2022/04/08 09:42:22;;;;;;;9.85;2.35;;;;;;;16.07;34.58;100159.63;5015245;28;20065;-72
2022/04/08 09:44:47;;;;;;;27.63;4.90;;;;;;;15.87;35.28;100165.50;5024084;28;20441;-71
2022/04/08 09:47:14;;;;;;;5.22;2.10;;;;;;;15.76;34.70;100177.09;5017304;28;20041;-72
2022/04/08 09:49:41;;;;;;;8.10;2.63;;;;;;;15.48;34.98;100181.94;5017192;28;20021;-72
2022/04/08 09:52:07;;;;;;;5.85;2.10;;;;;;;15.90;34.33;100179.34;5017497;28;20112;-72
2022/04/08 09:54:33;;;;;;;19.23;4.20;;;;;;;15.94;34.42;100190.44;5016908;28;20029;-72
2022/04/08 09:57:01;;;;;;;10.43;2.67;;;;;;;16.29;34.46;100165.53;5017125;28;20056;-72
2022/04/08 09:59:30;;;;;;;21.25;5.25;;;;;;;16.46;33.78;100187.13;5017060;28;20273;-73
2022/04/08 10:02:01;;;;;;;10.80;2.40;;;;;;;16.18;33.93;100183.84;5017453;28;20043;-73
2022/04/08 10:04:28;;;;;;;9.88;2.80;;;;;;;16.46;34.08;100180.81;5017169;28;20029;-78
2022/04/08 10:06:53;;;;;;;20.30;4.57;;;;;;;17.09;33.07;100189.44;5016259;28;20044;-76
2022/04/08 10:09:22;;;;;;;15.27;3.10;;;;;;;16.79;33.68;100186.59;5016909;28;20026;-71
2022/04/08 10:12:00;;;;;;;11.38;2.65;;;;;;;17.00;33.38;100186.13;5016913;28;20038;-72
2022/04/08 10:14:37;;;;;;;6.40;1.75;;;;;;;16.39;32.52;100184.25;5017007;28;20049;-72
2022/04/08 10:17:04;;;;;;;7.95;2.25;;;;;;;16.80;32.40;100185.41;5015437;28;20041;-72
2022/04/08 10:19:30;;;;;;;9.52;2.50;;;;;;;16.96;32.69;100198.28;5015783;28;20038;-72
2022/04/08 10:21:56;;;;;;;8.85;2.78;;;;;;;17.22;32.86;100206.59;5003415;28;20054;-71
2022/04/08 10:24:24;;;;;;;9.07;2.53;;;;;;;17.39;32.33;100205.28;5015979;28;20029;-71
2022/04/08 10:27:01;;;;;;;10.40;2.40;;;;;;;16.73;33.12;100204.59;5016482;28;20049;-72
2022/04/08 10:29:28;;;;;;;11.68;2.20;;;;;;;16.57;33.27;100220.44;5014308;28;20041;-71
2022/04/08 10:32:16;;;;;;;9.20;2.55;;;;;;;16.71;33.12;100217.19;5021856;28;20072;-71
2022/04/08 10:34:42;;;;;;;11.10;2.65;;;;;;;16.44;33.26;100219.78;5013384;28;20122;-78
2022/04/08 10:37:19;;;;;;;12.32;2.78;;;;;;;16.65;32.63;100222.97;5020414;28;20124;-74
2022/04/08 10:40:02;;;;;;;12.30;2.85;;;;;;;16.00;33.10;100233.09;5018396;28;20025;-70
2022/04/08 10:42:29;;;;;;;14.45;2.83;;;;;;;16.92;32.33;100214.78;5023652;28;20067;-73
2022/04/08 10:44:55;;;;;;;9.02;3.42;;;;;;;17.31;31.93;100209.13;5016575;28;20026;-71
2022/04/08 10:47:22;;;;;;;8.55;2.30;;;;;;;17.30;32.75;100219.34;5021203;28;20074;-72
2022/04/08 10:49:54;;;;;;;10.57;2.40;;;;;;;17.25;32.44;100221.63;5014867;28;20407;-71
2022/04/08 10:52:27;;;;;;;6.72;2.42;;;;;;;16.78;32.08;100236.63;5013880;28;20022;-86
2022/04/08 10:55:07;;;;;;;10.98;3.08;;;;;;;17.11;31.31;100239.56;5016304;28;20029;-71
2022/04/08 10:57:39;;;;;;;11.05;2.92;;;;;;;16.95;31.45;100232.56;5016192;28;20049;-76
2022/04/08 11:00:13;;;;;;;13.93;2.25;;;;;;;17.63;30.65;100232.47;5015662;28;20113;-71
2022/04/08 11:02:40;;;;;;;9.95;1.90;;;;;;;17.33;30.54;100229.66;5016294;28;20472;-71
2022/04/08 11:05:08;;;;;;;12.00;3.47;;;;;;;17.67;29.87;100232.50;5015719;28;20025;-72
2022/04/08 11:07:34;;;;;;;52.40;11.23;;;;;;;17.64;29.69;100234.06;5016297;28;20024;-71
2022/04/08 11:10:02;;;;;;;84.82;16.63;;;;;;;17.87;29.59;100228.50;5015827;28;20109;-72
2022/04/08 11:12:30;;;;;;;9.27;2.42;;;;;;;17.46;29.98;100233.00;5013998;28;20574;-72
2022/04/08 11:14:58;;;;;;;10.48;2.00;;;;;;;17.94;29.34;100231.34;5015770;28;20485;-77
2022/04/08 11:17:33;;;;;;;8.93;2.17;;;;;;;17.71;29.01;100245.25;5019703;28;20508;-71
2022/04/08 11:19:59;;;;;;;6.57;2.20;;;;;;;17.94;28.64;100241.59;5029764;28;20052;-72
2022/04/08 11:22:25;;;;;;;8.52;1.90;;;;;;;17.75;28.79;100246.06;5028379;28;20032;-71
2022/04/08 11:24:56;;;;;;;4.32;2.00;;;;;;;17.47;29.24;100251.19;5030290;28;20697;-72